Time;durP1;ratioP1;P1;durP2;ratioP2;P2;SDS_P1;SDS_P2;PMS_P1;PMS_P2;Temp;Humidity;BMP_temperature;BMP_pressure;BME280_temperature;BME280_humidity;BME280_pressure;Samples;Min_cycle;Max_cycle;Signal;HPM_P1;HPM_P2
2024/01/16 00:01:14;;;;;;;8.45;0.73;;;-1.10;99.90;;;;;;5091393;27;20074;-84
2024/01/16 00:03:39;;;;;;;14.57;0.68;;;-1.00;99.90;;;;;;5089969;27;20047;-83
2024/01/16 00:06:06;;;;;;;12.88;0.70;;;-0.90;99.90;;;;;;5086905;27;20065;-84
2024/01/16 00:08:32;;;;;;;20.77;1.10;;;-1.00;99.90;;;;;;5090540;27;20047;-84
2024/01/16 00:10:58;;;;;;;17.05;1.13;;;-1.00;99.90;;;;;;5100779;27;20043;-83
2024/01/16 00:13:24;;;;;;;11.90;1.83;;;-1.00;99.90;;;;;;5089901;27;20130;-83
2024/01/16 00:15:50;;;;;;;10.85;0.70;;;-1.00;99.90;;;;;;5107207;27;20035;-84
2024/01/16 00:18:16;;;;;;;9.57;0.60;;;-1.00;99.90;;;;;;5094273;27;20044;-85
2024/01/16 00:20:42;;;;;;;13.60;1.85;;;;;;;;;;5093769;28;20780;-83
2024/01/16 00:23:08;;;;;;;9.93;1.48;;;-1.10;99.90;;;;;;5087213;27;20046;-84
2024/01/16 00:25:34;;;;;;;10.60;0.98;;;-1.10;99.90;;;;;;5107299;27;20054;-83
2024/01/16 00:28:02;;;;;;;20.48;1.45;;;-1.20;99.90;;;;;;5106637;27;20076;-82
2024/01/16 00:30:27;;;;;;;9.82;1.33;;;2.20;99.90;;;;;;5090459;27;20049;-83
2024/01/16 00:32:53;;;;;;;18.10;1.23;;;;;;;;;;5111744;27;20039;-83
2024/01/16 00:35:19;;;;;;;18.38;2.85;;;-1.20;99.90;;;;;;5094187;27;20582;-82
2024/01/16 00:37:45;;;;;;;13.52;1.05;;;;;;;;;;5095246;27;20039;-84
2024/01/16 00:40:11;;;;;;;13.27;1.35;;;-1.30;99.90;;;;;;5089580;27;20050;-82
2024/01/16 00:42:38;;;;;;;15.98;0.90;;;-1.30;99.90;;;;;;5106391;27;20053;-82
2024/01/16 00:45:04;;;;;;;8.55;1.08;;;-1.10;99.90;;;;;;5100512;27;20073;-82
2024/01/16 00:47:30;;;;;;;10.65;0.98;;;-1.20;99.90;;;;;;5098415;27;20051;-83
2024/01/16 00:49:56;;;;;;;13.07;0.82;;;-1.30;99.90;;;;;;5089255;27;20039;-82
2024/01/16 00:52:21;;;;;;;14.13;0.90;;;-1.40;99.90;;;;;;5108382;27;20043;-83
2024/01/16 00:54:47;;;;;;;10.48;1.48;;;;;;;;;;5125484;27;20038;-82
2024/01/16 00:57:16;;;;;;;11.23;0.82;;;-1.60;99.90;;;;;;5108584;27;20042;-82
2024/01/16 00:59:42;;;;;;;11.57;0.95;;;;;;;;;;5108698;27;20808;-82
2024/01/16 01:02:11;;;;;;;7.28;0.95;;;;;;;;;;5108277;27;20051;-83
2024/01/16 01:04:41;;;;;;;11.98;0.90;;;-1.60;99.90;;;;;;5108610;27;20094;-83
2024/01/16 01:07:08;;;;;;;12.52;2.53;;;;;;;;;;5096571;27;20432;-82
2024/01/16 01:09:34;;;;;;;7.85;0.82;;;;;;;;;;5089185;27;20683;-83
2024/01/16 01:12:00;;;;;;;8.48;0.82;;;;;;;;;;5106208;27;20054;-83
2024/01/16 01:14:29;;;;;;;10.80;0.90;;;-1.40;99.90;;;;;;5106294;27;20090;-83
2024/01/16 01:16:55;;;;;;;9.00;1.00;;;;;;;;;;5090163;27;20500;-81
2024/01/16 01:19:21;;;;;;;6.25;0.50;;;;;;;;;;5091381;27;20130;-82
2024/01/16 01:21:47;;;;;;;6.40;0.82;;;;;;;;;;5093736;27;20152;-83
2024/01/16 01:24:13;;;;;;;11.65;0.47;;;;;;;;;;5110194;27;20053;-83
2024/01/16 01:26:39;;;;;;;7.45;0.43;;;;;;;;;;5104881;27;20145;-83
2024/01/16 01:29:05;;;;;;;4.82;0.52;;;;;;;;;;5108784;27;20044;-83
2024/01/16 01:31:31;;;;;;;16.77;2.75;;;;;;;;;;5108274;27;20047;-83
2024/01/16 01:33:58;;;;;;;11.30;0.50;;;;;;;;;;5125454;27;20564;-83
2024/01/16 01:36:24;;;;;;;8.38;0.30;;;;;;;;;;5108309;27;20103;-83
2024/01/16 01:38:50;;;;;;;9.70;0.40;;;;;;;;;;5125932;27;20566;-84
2024/01/16 01:41:16;;;;;;;2.55;0.15;;;;;;;;;;5125581;27;20772;-84
2024/01/16 01:43:42;;;;;;;8.48;0.28;;;;;;;;;;5096996;28;20051;-83
2024/01/16 01:46:25;;;;;;;9.63;0.70;;;-0.90;99.90;;;;;;5089293;28;20792;-84
2024/01/16 01:48:51;;;;;;;6.10;0.38;;;;;;;;;;5102295;27;20138;-84
2024/01/16 01:51:20;;;;;;;11.85;1.27;;;-1.00;99.90;;;;;;5109218;27;20046;-84
2024/01/16 01:53:49;;;;;;;9.63;0.60;;;-1.10;99.90;;;;;;5124992;27;20042;-84
2024/01/16 01:56:18;;;;;;;9.82;1.65;;;-1.30;99.90;;;;;;5125538;27;20613;-84
2024/01/16 01:58:46;;;;;;;6.43;0.65;;;-1.30;99.90;;;;;;5108127;27;20045;-85
2024/01/16 02:01:15;;;;;;;9.48;0.70;;;-1.20;99.90;;;;;;5108184;27;20156;-86
2024/01/16 02:03:45;;;;;;;9.55;0.75;;;-1.50;99.90;;;;;;5125041;27;20050;-84
2024/01/16 02:06:12;;;;;;;5.50;0.63;;;;;;;;;;5107841;27;20044;-85
2024/01/16 02:08:39;;;;;;;15.35;1.58;;;-1.50;99.90;;;;;;5107580;27;20135;-84
2024/01/16 02:11:05;;;;;;;9.82;1.10;;;;;;;;;;5108259;27;20515;-85
2024/01/16 02:13:32;;;;;;;9.77;0.47;;;;;;;;;;5108713;27;20089;-85
2024/01/16 02:15:58;;;;;;;8.20;0.40;;;;;;;;;;5126132;27;20074;-85
2024/01/16 02:18:24;;;;;;;7.35;0.50;;;;;;;;;;5111206;27;20116;-86
2024/01/16 02:20:51;;;;;;;7.45;0.75;;;;;;;;;;5090375;27;20050;-85
2024/01/16 02:23:26;;;;;;;9.80;0.75;;;-1.60;99.90;;;;;;5119402;27;20117;-86
2024/01/16 02:25:52;;;;;;;9.00;1.00;;;;;;;;;;5103504;27;20772;-85
2024/01/16 02:28:18;;;;;;;6.35;0.30;;;;;;;;;;5102471;27;20078;-84
2024/01/16 02:30:44;;;;;;;9.25;0.60;;;;;;;;;;5112841;27;20055;-85
2024/01/16 02:33:10;;;;;;;8.63;0.40;;;;;;;;;;5108923;27;20051;-83
2024/01/16 02:35:36;;;;;;;6.03;1.02;;;;;;;;;;5090192;28;20066;-86
2024/01/16 02:38:02;;;;;;;8.00;0.65;;;-0.70;99.90;;;;;;5124550;27;20145;-86
2024/01/16 02:40:28;;;;;;;23.30;2.42;;;;;;;;;;5125665;27;20883;-86
2024/01/16 02:42:55;;;;;;;7.20;0.95;;;;;;;;;;5099548;28;20047;-86
2024/01/16 02:45:21;;;;;;;12.68;1.40;;;;;;;;;;5092186;27;20049;-83
2024/01/16 02:47:47;;;;;;;13.57;0.93;;;;;;;;;;5093008;27;20043;-84
2024/01/16 02:50:13;;;;;;;12.60;0.90;;;;;;;;;;5125065;27;20051;-85
2024/01/16 02:52:39;;;;;;;14.60;0.77;;;;;;;;;;5115300;27;20077;-85
2024/01/16 02:55:06;;;;;;;6.82;0.60;;;-0.70;99.90;;;;;;5092478;27;20062;-85
2024/01/16 02:57:32;;;;;;;10.75;0.88;;;;;;;;;;5091616;27;20780;-85
2024/01/16 02:59:58;;;;;;;3.28;0.30;;;;;;;;;;5098489;27;20050;-83
2024/01/16 03:02:24;;;;;;;4.53;0.45;;;;;;;;;;5092017;27;20042;-82
2024/01/16 03:04:50;;;;;;;11.18;0.43;;;;;;;;;;5091079;27;20046;-84
2024/01/16 03:07:18;;;;;;;11.68;0.80;;;;;;;;;;5092192;27;20078;-83
2024/01/16 03:09:43;;;;;;;9.73;1.20;;;-1.20;99.90;;;;;;5091896;27;20043;-85
2024/01/16 03:12:10;;;;;;;15.80;1.40;;;;;;;;;;5108746;27;20043;-85
2024/01/16 03:14:36;;;;;;;6.60;0.70;;;;;;;;;;5124673;27;20041;-85
2024/01/16 03:17:03;;;;;;;7.05;0.40;;;-1.30;99.90;;;;;;5127358;27;20089;-85
2024/01/16 03:19:29;;;;;;;10.65;1.27;;;-1.30;99.90;;;;;;5127537;27;20039;-84
2024/01/16 03:21:55;;;;;;;6.45;0.50;;;;;;;;;;5113025;27;20621;-83
2024/01/16 03:24:21;;;;;;;4.40;0.35;;;;;;;;;;5090727;27;20766;-83
2024/01/16 03:26:48;;;;;;;12.40;0.50;;;;;;;;;;5090734;27;20046;-84
2024/01/16 03:29:14;;;;;;;7.50;0.25;;;;;;;;;;5091016;27;20116;-84
2024/01/16 03:31:40;;;;;;;8.52;1.35;;;;;;;;;;5096511;27;20624;-84
2024/01/16 03:34:10;;;;;;;4.15;0.50;;;;;;;;;;5116280;27;20050;-84
2024/01/16 03:36:36;;;;;;;7.20;0.80;;;;;;;;;;5090655;27;20042;-84
2024/01/16 03:39:02;;;;;;;10.00;1.35;;;;;;;;;;5090416;27;20792;-84
2024/01/16 03:41:28;;;;;;;8.38;0.40;;;;;;;;;;5090897;27;20150;-83
2024/01/16 03:43:57;;;;;;;7.15;0.20;;;;;;;;;;5090825;27;20043;-85
2024/01/16 03:46:24;;;;;;;10.02;0.40;;;;;;;;;;5091024;27;20043;-84
2024/01/16 03:48:50;;;;;;;4.32;0.40;;;;;;;;;;5108091;27;20047;-85
2024/01/16 03:51:17;;;;;;;6.38;0.50;;;;;;;;;;5097340;27;20082;-84
2024/01/16 03:53:44;;;;;;;17.88;2.45;;;;;;;;;;5090272;27;20043;-84
2024/01/16 03:56:10;;;;;;;5.85;0.22;;;;;;;;;;5105783;27;20507;-84
2024/01/16 03:58:36;;;;;;;9.63;0.50;;;;;;;;;;5090230;27;20043;-83
2024/01/16 04:01:02;;;;;;;7.88;0.40;;;;;;;;;;5107054;27;20039;-84
2024/01/16 04:03:28;;;;;;;5.68;0.28;;;;;;;;;;5089979;27;20461;-84
2024/01/16 04:05:54;;;;;;;10.32;1.23;;;;;;;;;;5101514;27;20784;-84
2024/01/16 04:08:20;;;;;;;11.02;0.50;;;;;;;;;;5110143;27;20041;-84
2024/01/16 04:10:46;;;;;;;1.88;0.30;;;-1.70;99.90;;;;;;5126346;27;20499;-82
2024/01/16 04:13:12;;;;;;;5.05;0.52;;;;;;;;;;5125229;27;20043;-82
2024/01/16 04:15:39;;;;;;;9.77;0.25;;;-1.40;99.90;;;;;;5110496;27;20039;-82
2024/01/16 04:18:05;;;;;;;16.17;1.10;;;-1.90;99.90;;;;;;5107123;27;20221;-83
2024/01/16 04:20:31;;;;;;;5.45;0.70;;;;;;;;;;5090222;27;20652;-83
2024/01/16 04:22:58;;;;;;;13.13;0.60;;;;;;;;;;5090294;27;20035;-82
2024/01/16 04:25:24;;;;;;;9.68;0.40;;;-1.10;99.90;;;;;;5106327;27;20139;-83
2024/01/16 04:27:50;;;;;;;11.10;0.40;;;;;;;;;;5113006;27;20053;-82
2024/01/16 04:30:16;;;;;;;10.02;1.23;;;;;;;;;;5113861;27;20115;-81
2024/01/16 04:32:42;;;;;;;9.70;0.85;;;;;;;;;;5089529;27;20054;-82
2024/01/16 04:35:09;;;;;;;7.03;0.40;;;;;;;;;;5089431;27;20130;-82
2024/01/16 04:37:35;;;;;;;31.77;2.95;;;;;;;;;;5106173;27;20039;-82
2024/01/16 04:40:01;;;;;;;16.10;1.45;;;;;;;;;;5106461;27;20052;-81
2024/01/16 04:42:28;;;;;;;4.35;0.60;;;;;;;;;;5089564;27;20495;-81
2024/01/16 04:44:54;;;;;;;10.10;0.38;;;;;;;;;;5105143;27;20146;-81
2024/01/16 04:47:20;;;;;;;8.52;0.85;;;;;;;;;;5108557;27;20125;-81
2024/01/16 04:49:47;;;;;;;6.63;0.82;;;;;;;;;;5108948;27;20153;-81
2024/01/16 04:52:13;;;;;;;4.15;0.50;;;;;;;;;;5125850;27;20095;-81
2024/01/16 04:54:39;;;;;;;11.85;1.70;;;;;;;;;;5126012;27;20049;-81
2024/01/16 04:57:06;;;;;;;14.65;1.60;;;;;;;;;;5109260;27;20391;-81
2024/01/16 04:59:32;;;;;;;7.57;0.45;;;;;;;;;;5109389;27;20461;-81
2024/01/16 05:02:01;;;;;;;6.90;1.45;;;-1.20;99.90;;;;;;5126122;27;20537;-81
2024/01/16 05:04:27;;;;;;;12.05;1.33;;;;;;;;;;5114608;27;20038;-81
2024/01/16 05:06:53;;;;;;;9.73;1.02;;;;;;;;;;5088652;27;20138;-82
2024/01/16 05:09:21;;;;;;;7.38;0.60;;;-1.10;99.90;;;;;;5092340;27;20035;-81
2024/01/16 05:11:49;;;;;;;10.88;0.40;;;;;;;;;;5125145;27;20138;-82
2024/01/16 05:14:15;;;;;;;9.57;0.40;;;;;;;;;;5107980;27;20045;-82
2024/01/16 05:16:41;;;;;;;5.80;1.50;;;;;;;;;;5125205;27;20207;-81
2024/01/16 05:19:07;;;;;;;14.68;0.75;;;;;;;;;;5125015;27;20035;-81
2024/01/16 05:21:33;;;;;;;12.00;0.60;;;;;;;;;;5125440;27;20053;-81
2024/01/16 05:23:59;;;;;;;11.68;1.15;;;;;;;;;;5108390;27;20051;-81
2024/01/16 05:26:25;;;;;;;8.80;0.52;;;;;;;;;;5124936;27;20153;-82
2024/01/16 05:28:54;;;;;;;8.52;0.40;;;-1.20;99.90;;;;;;5124924;27;20055;-82
2024/01/16 05:31:20;;;;;;;9.45;1.10;;;-1.10;99.90;;;;;;5107864;27;20074;-81
2024/01/16 05:33:46;;;;;;;10.32;0.75;;;;;;;;;;5108472;27;20156;-81
2024/01/16 05:36:12;;;;;;;10.13;0.55;;;;;;;;;;5124839;27;20046;-82
2024/01/16 05:38:38;;;;;;;8.48;0.30;;;;;;;;;;5108533;27;20042;-81
2024/01/16 05:41:04;;;;;;;12.20;0.63;;;-1.30;99.90;;;;;;5125178;27;20041;-81
2024/01/16 05:43:30;;;;;;;8.80;1.10;;;;;;;;;;5125388;27;20039;-81
2024/01/16 05:45:57;;;;;;;13.65;0.88;;;;;;;;;;5107744;27;20038;-80
2024/01/16 05:48:23;;;;;;;9.63;0.50;;;;;;;;;;5125025;27;20153;-81
2024/01/16 05:50:49;;;;;;;6.38;0.30;;;;;;;;;;5124487;27;20034;-80
2024/01/16 05:53:15;;;;;;;11.90;1.42;;;;;;;;;;5105481;28;20050;-80
2024/01/16 05:55:41;;;;;;;9.88;0.60;;;;;;;;;;5119467;28;20419;-80
2024/01/16 05:58:07;;;;;;;16.48;1.00;;;;;;;;;;5089000;28;20487;-80
2024/01/16 06:00:34;;;;;;;12.32;0.45;;;;;;;;;;5117834;27;20707;-80
2024/01/16 06:03:00;;;;;;;12.30;0.80;;;;;;;;;;5113370;28;20074;-80
2024/01/16 06:05:26;;;;;;;8.43;1.15;;;;;;;;;;5088736;28;20065;-80
2024/01/16 06:07:52;;;;;;;13.15;0.80;;;;;;;;;;5088064;27;20777;-81
2024/01/16 06:10:18;;;;;;;6.20;0.50;;;-1.00;99.90;;;;;;5088489;27;20369;-81
2024/01/16 06:12:44;;;;;;;7.20;0.60;;;;;;;;;;5088726;27;20055;-80
2024/01/16 06:15:13;;;;;;;6.03;0.55;;;;;;;;;;5105817;27;20113;-81
2024/01/16 06:17:40;;;;;;;10.15;0.50;;;;;;;;;;5087941;27;20043;-80
2024/01/16 06:20:06;;;;;;;8.77;0.43;;;;;;;;;;5107155;27;20043;-80
2024/01/16 06:22:32;;;;;;;12.82;0.75;;;;;;;;;;5091725;27;20572;-79
2024/01/16 06:24:58;;;;;;;8.88;0.90;;;;;;;;;;5084882;27;20082;-80
2024/01/16 06:27:25;;;;;;;8.18;0.50;;;;;;;;;;5091704;27;20085;-80
2024/01/16 06:29:51;;;;;;;4.43;0.50;;;-1.00;99.90;;;;;;5091914;27;20051;-80
2024/01/16 06:32:17;;;;;;;12.85;0.50;;;;;;;;;;5091643;27;20416;-81
2024/01/16 06:34:43;;;;;;;7.47;0.50;;;;;;;;;;5109374;27;20067;-81
2024/01/16 06:37:10;;;;;;;5.70;0.30;;;;;;;;;;5091695;27;20396;-81
2024/01/16 06:39:39;;;;;;;15.70;0.85;;;-0.90;99.90;;;;;;5108542;27;20475;-81
2024/01/16 06:42:05;;;;;;;10.25;0.95;;;;;;;;;;5091392;27;20043;-80
2024/01/16 06:44:32;;;;;;;8.98;0.60;;;;;;;;;;5091717;27;20051;-80
2024/01/16 06:46:58;;;;;;;8.07;1.23;;;;;;;;;;5092899;27;20411;-80
2024/01/16 06:49:24;;;;;;;9.98;0.70;;;;;;;;;;5121315;27;20075;-81
2024/01/16 06:51:50;;;;;;;3.88;0.40;;;;;;;;;;5099140;27;20153;-80
2024/01/16 06:54:16;;;;;;;4.82;0.38;;;;;;;;;;5085729;27;20041;-80
2024/01/16 06:56:42;;;;;;;4.10;0.80;;;;;;;;;;5128554;27;20041;-82
2024/01/16 06:59:08;;;;;;;10.48;0.73;;;;;;;;;;5146538;27;20085;-80
2024/01/16 07:01:34;;;;;;;7.97;1.15;;;;;;;;;;5128474;27;20082;-81
2024/01/16 07:04:01;;;;;;;11.68;0.40;;;;;;;;;;5127920;27;20109;-81
2024/01/16 07:06:27;;;;;;;13.07;2.25;;;;;;;;;;5111041;27;20126;-81
2024/01/16 07:08:53;;;;;;;9.02;0.65;;;;;;;;;;5113871;27;20045;-81
2024/01/16 07:11:20;;;;;;;12.68;1.35;;;;;;;;;;5100221;27;20626;-80
2024/01/16 07:13:47;;;;;;;8.82;0.70;;;;;;;;;;5128215;27;20053;-80
2024/01/16 07:16:14;;;;;;;11.55;0.77;;;;;;;;;;5110667;27;20146;-81
2024/01/16 07:18:40;;;;;;;14.07;1.27;;;;;;;;;;5127995;27;20071;-81
2024/01/16 07:21:26;;;;;;;8.88;0.80;;;-1.00;99.90;;;;;;5110637;27;20079;-79
2024/01/16 07:23:52;;;;;;;10.90;0.77;;;;;;;;;;5095421;27;20570;-81
2024/01/16 07:26:18;;;;;;;9.45;1.02;;;;;;;;;;5108439;27;20047;-80
2024/01/16 07:28:48;;;;;;;13.82;1.33;;;;;;;;;;5108025;27;20046;-80
2024/01/16 07:31:16;;;;;;;10.07;0.90;;;;;;;;;;5108278;27;20511;-79
2024/01/16 07:33:42;;;;;;;5.90;0.85;;;;;;;;;;5108125;27;20042;-80
2024/01/16 07:36:09;;;;;;;11.55;1.98;;;-0.90;99.90;;;;;;5091148;27;20039;-80
2024/01/16 07:38:36;;;;;;;12.38;1.33;;;-1.30;99.90;;;;;;5111003;27;20162;-80
2024/01/16 07:41:02;;;;;;;11.98;3.05;;;;;;;;;;5111053;27;20043;-80
2024/01/16 07:43:29;;;;;;;16.90;2.45;;;;;;;;;;5127762;27;20074;-80
2024/01/16 07:45:56;;;;;;;8.73;1.42;;;;;;;;;;5110482;27;20130;-80
2024/01/16 07:48:25;;;;;;;7.70;1.27;;;;;;;;;;5109831;27;20043;-81
2024/01/16 07:50:54;;;;;;;10.45;1.75;;;-0.90;99.90;;;;;;5110729;27;20488;-80
2024/01/16 07:53:20;;;;;;;9.02;1.77;;;;;;;;;;5126728;27;20049;-80
2024/01/16 07:55:46;;;;;;;11.55;2.00;;;;;;;;;;5127065;27;20042;-79
2024/01/16 07:58:12;;;;;;;9.40;1.77;;;;;;;;;;5107525;27;20034;-80
2024/01/16 08:00:39;;;;;;;17.92;2.10;;;;;;;;;;5091103;27;20122;-81
2024/01/16 08:03:08;;;;;;;9.43;2.40;;;-0.80;99.90;;;;;;5090357;27;20075;-80
2024/01/16 08:05:34;;;;;;;9.23;2.00;;;;;;;;;;5114032;27;20042;-81
2024/01/16 08:08:00;;;;;;;12.60;3.00;;;;;;;;;;5109147;27;20047;-80
2024/01/16 08:10:26;;;;;;;15.85;3.50;;;;;;;;;;5109794;27;20039;-80
2024/01/16 08:12:52;;;;;;;13.05;4.07;;;;;;;;;;5126128;27;20042;-81
2024/01/16 08:15:18;;;;;;;12.82;3.67;;;;;;;;;;5109096;27;20478;-81
2024/01/16 08:17:45;;;;;;;15.75;4.13;;;;;;;;;;5108751;27;20045;-81
2024/01/16 08:20:11;;;;;;;15.88;4.30;;;;;;;;;;5109182;27;20256;-81
2024/01/16 08:22:38;;;;;;;16.00;4.38;;;;;;;;;;5126374;27;20053;-80
2024/01/16 08:25:08;;;;;;;17.70;5.82;;;;;;;;;;5109030;27;20175;-81
2024/01/16 08:27:34;;;;;;;19.58;6.43;;;-0.80;99.90;;;;;;5111518;27;20380;-81
2024/01/16 08:30:00;;;;;;;18.90;6.38;;;;;;;;;;5093827;27;20043;-81
2024/01/16 08:32:26;;;;;;;21.60;7.20;;;-0.50;99.90;;;;;;5115208;27;20043;-80
2024/01/16 08:34:53;;;;;;;23.08;7.57;;;-0.50;99.90;;;;;;5089615;27;20499;-80
2024/01/16 08:37:19;;;;;;;20.85;8.02;;;-0.30;99.90;;;;;;5106840;27;20503;-81
2024/01/16 08:39:45;;;;;;;23.80;8.60;;;;;;;;;;5106564;27;20046;-81
2024/01/16 08:42:13;;;;;;;19.05;7.15;;;;;;;;;;5089146;27;20035;-81
2024/01/16 08:44:40;;;;;;;21.15;6.93;;;;;;;;;;5089607;27;20046;-80
2024/01/16 08:47:06;;;;;;;23.70;7.35;;;;;;;;;;5106287;27;20100;-80
2024/01/16 08:49:33;;;;;;;22.45;7.30;;;-0.40;99.90;;;;;;5088500;27;20462;-80
2024/01/16 08:51:59;;;;;;;19.90;6.95;;;;;;;;;;5097338;27;20472;-80
2024/01/16 08:54:26;;;;;;;16.80;6.47;;;;;;;;;;5098175;27;20755;-80
2024/01/16 08:56:52;;;;;;;20.65;7.75;;;-0.40;99.90;;;;;;5126471;27;20117;-81
2024/01/16 08:59:18;;;;;;;23.27;6.13;;;;;;;;;;5125455;27;20035;-80
2024/01/16 09:01:45;;;;;;;18.48;6.55;;;;;;;;;;5106603;27;20391;-80
2024/01/16 09:04:13;;;;;;;18.90;6.57;;;0.00;99.90;;;;;;5107304;27;20079;-79
2024/01/16 09:06:40;;;;;;;27.00;7.00;;;;;;;;;;5088772;27;20039;-80
2024/01/16 09:09:06;;;;;;;22.13;7.05;;;;;;;;;;5112350;27;20154;-81
2024/01/16 09:11:32;;;;;;;20.95;6.22;;;;;;;;;;5113596;27;20043;-80
2024/01/16 09:13:58;;;;;;;18.50;6.85;;;;;;;;;;5095155;27;20511;-81
2024/01/16 09:16:24;;;;;;;19.20;7.88;;;-0.20;99.90;;;;;;5105380;27;20503;-80
2024/01/16 09:18:50;;;;;;;28.15;7.20;;;;;;;;;;5088180;27;20050;-79
2024/01/16 09:21:16;;;;;;;23.30;7.43;;;;;;;;;;5105337;27;20612;-79
2024/01/16 09:23:43;;;;;;;24.27;7.43;;;;;;;;;;5088136;27;20035;-80
2024/01/16 09:26:10;;;;;;;22.48;7.43;;;;;;;;;;5103274;27;20125;-80
2024/01/16 09:28:36;;;;;;;26.10;7.10;;;;;;;;;;5112757;27;20122;-81
2024/01/16 09:31:03;;;;;;;21.05;6.55;;;;;;;;;;5104916;27;20043;-80
2024/01/16 09:33:29;;;;;;;20.75;6.60;;;0.10;99.90;;;;;;5105177;27;20043;-80
2024/01/16 09:35:55;;;;;;;24.17;6.30;;;;;;;;;;5115364;27;20054;-79
2024/01/16 09:38:21;;;;;;;20.60;6.05;;;;;;;;;;5086028;27;20439;-80
2024/01/16 09:40:47;;;;;;;24.90;6.78;;;;;;;;;;5084718;28;20491;-79
2024/01/16 09:43:14;;;;;;;27.13;6.53;;;;;;;;;;5126218;27;20053;-81
2024/01/16 09:45:40;;;;;;;23.50;6.53;;;;;;;;;;5073397;28;20047;-79
2024/01/16 09:48:08;;;;;;;18.25;5.75;;;0.10;99.90;;;;;;5081676;28;20047;-81
2024/01/16 09:50:34;;;;;;;16.52;5.47;;;;;;;;;;5087352;28;20573;-80
2024/01/16 09:53:00;;;;;;;22.45;6.60;;;0.10;99.90;;;;;;5083079;27;20150;-80
2024/01/16 09:55:27;;;;;;;26.08;5.85;;;;;;;;;;5102606;27;20043;-80
2024/01/16 09:57:53;;;;;;;18.27;4.80;;;;;;;;;;5101761;27;20547;-81
2024/01/16 10:00:20;;;;;;;18.60;4.68;;;;;;;;;;5113179;27;20088;-79
2024/01/16 10:02:47;;;;;;;19.48;5.57;;;0.10;99.90;;;;;;5103870;27;20047;-80
2024/01/16 10:05:16;;;;;;;20.58;5.43;;;;;;;;;;5098188;27;20906;-79
2024/01/16 10:07:45;;;;;;;17.08;4.85;;;0.20;99.90;;;;;;5101066;27;20479;-80
2024/01/16 10:10:11;;;;;;;17.23;5.32;;;0.30;99.90;;;;;;5101310;27;20047;-80
2024/01/16 10:12:39;;;;;;;18.20;5.65;;;;;;;;;;5098823;27;20043;-80
2024/01/16 10:15:09;;;;;;;17.23;6.25;;;0.30;99.90;;;;;;5103467;27;20066;-80
2024/01/16 10:17:40;;;;;;;25.33;6.95;;;0.20;99.90;;;;;;5097300;27;20046;-79
2024/01/16 10:20:07;;;;;;;21.75;7.55;;;0.30;99.90;;;;;;5122117;27;20641;-80
2024/01/16 10:22:34;;;;;;;28.70;8.82;;;;;;;;;;5107131;27;20078;-79
2024/01/16 10:25:08;;;;;;;30.63;10.55;;;0.40;99.90;;;;;;5109548;27;20074;-80
2024/01/16 10:27:34;;;;;;;29.23;9.30;;;0.50;99.90;;;;;;5101464;27;20039;-82
2024/01/16 10:30:01;;;;;;;28.63;10.23;;;0.50;99.90;;;;;;5108497;27;20042;-82
2024/01/16 10:32:31;;;;;;;30.48;9.48;;;0.40;99.90;;;;;;5122485;27;20569;-82
2024/01/16 10:35:04;;;;;;;28.17;11.02;;;0.60;99.90;;;;;;5096050;27;20518;-80
2024/01/16 10:37:54;;;;;;;30.60;10.75;;;;;;;;;;5116872;27;20039;-82
2024/01/16 10:40:21;;;;;;;25.27;10.45;;;;;;;;;;5093791;27;20522;-81
2024/01/16 10:43:01;;;;;;;27.85;10.98;;;0.70;99.90;;;;;;5092273;27;20075;-82
2024/01/16 10:45:27;;;;;;;38.85;11.02;;;;;;;;;;5112576;27;20058;-80
2024/01/16 10:48:08;;;;;;;27.67;11.50;;;0.70;99.90;;;;;;5091531;27;20039;-83
2024/01/16 10:50:36;;;;;;;37.23;11.33;;;0.80;99.90;;;;;;5094410;27;20054;-81
2024/01/16 10:53:07;;;;;;;25.00;10.15;;;0.90;99.90;;;;;;5092303;27;20047;-82
2024/01/16 10:55:53;;;;;;;27.10;11.02;;;0.80;99.90;;;;;;5092366;27;20403;-83
2024/01/16 10:58:23;;;;;;;27.75;10.93;;;0.80;99.90;;;;;;5108293;27;20039;-82
2024/01/16 11:00:54;;;;;;;23.33;10.60;;;0.90;99.90;;;;;;5091413;27;20570;-83
2024/01/16 11:03:39;;;;;;;29.17;10.57;;;0.80;99.90;;;;;;5115891;27;20031;-84
2024/01/16 11:06:07;;;;;;;29.58;10.10;;;0.90;99.90;;;;;;5097181;27;20065;-83
2024/01/16 11:08:36;;;;;;;23.02;9.25;;;0.90;99.90;;;;;;5104739;27;20050;-83
2024/01/16 11:11:03;;;;;;;27.48;10.15;;;0.90;99.90;;;;;;5091293;27;20441;-83
2024/01/16 11:13:33;;;;;;;23.88;9.52;;;0.90;99.90;;;;;;5091790;27;20115;-84
2024/01/16 11:16:00;;;;;;;21.80;8.02;;;;;;;;;;5095629;27;20039;-81
2024/01/16 11:18:29;;;;;;;16.67;6.20;;;3.40;99.90;;;;;;5109397;27;20042;-81
2024/01/16 11:20:57;;;;;;;18.60;7.25;;;1.10;99.90;;;;;;5110716;27;20095;-82
2024/01/16 11:23:23;;;;;;;17.38;6.43;;;0.80;99.90;;;;;;5111482;27;20416;-83
2024/01/16 11:25:49;;;;;;;14.02;5.80;;;;;;;;;;5129013;27;20523;-85
2024/01/16 11:28:15;;;;;;;11.68;5.35;;;0.90;99.90;;;;;;5094999;27;20043;-84
2024/01/16 11:30:44;;;;;;;12.77;4.80;;;0.90;99.90;;;;;;5103326;27;20342;-83
2024/01/16 11:33:31;;;;;;;11.40;4.03;;;0.90;99.90;;;;;;5114776;27;20538;-86
2024/01/16 11:35:57;;;;;;;16.58;4.55;;;;;;;;;;5130762;27;20091;-84
2024/01/16 11:38:26;;;;;;;8.32;3.28;;;0.80;99.90;;;;;;5131847;27;20467;-86
2024/01/16 11:40:53;;;;;;;11.00;3.83;;;;;;;;;;5090740;27;20072;-88
2024/01/16 11:43:35;;;;;;;13.40;3.42;;;0.60;99.90;;;;;;5105438;27;20043;-86
2024/01/16 11:46:08;;;;;;;;;;;-0.20;99.90;;;;;;5116631;27;20414;-87
2024/01/16 11:48:34;;;;;;;15.13;2.45;;;0.70;99.90;;;;;;5098201;27;19919;-84
2024/01/16 11:51:00;;;;;;;7.47;2.20;;;;;;;;;;5120030;27;20050;-87
2024/01/16 11:53:41;;;;;;;12.40;2.65;;;0.60;99.90;;;;;;5128770;27;20118;-88
2024/01/16 11:56:07;;;;;;;10.05;2.00;;;;;;;;;;5113468;27;20043;-89
2024/01/16 11:58:53;;;;;;;6.07;1.55;;;0.50;99.90;;;;;;5107363;27;20134;-86
2024/01/16 12:01:19;;;;;;;22.48;2.05;;;;;;;;;;5122060;27;20106;-91
2024/01/16 12:04:07;;;;;;;23.83;2.10;;;0.30;99.90;;;;;;5103021;27;20480;-91
2024/01/16 12:06:40;;;;;;;14.73;1.98;;;0.20;99.90;;;;;;5121286;27;20062;-89
2024/01/16 12:09:13;;;;;;;12.55;2.42;;;0.60;99.90;;;;;;5096900;27;20043;-87
2024/01/16 12:11:43;;;;;;;20.77;2.20;;;0.60;99.90;;;;;;5100478;27;20106;-86
2024/01/16 12:14:09;;;;;;;12.50;2.45;;;;;;;;;;5103408;27;20043;-91
2024/01/16 12:16:35;;;;;;;10.95;2.58;;;;;;;;;;5110310;27;20039;-90
2024/01/16 12:19:08;;;;;;;19.00;2.17;;;0.80;99.90;;;;;;5102006;27;20087;-89
2024/01/16 12:21:44;;;;;;;13.55;2.63;;;0.80;99.90;;;;;;5108659;27;20047;-85
2024/01/16 12:24:13;;;;;;;10.05;1.98;;;0.90;99.90;;;;;;5104201;27;20690;-89
2024/01/16 12:26:39;;;;;;;11.88;1.90;;;;;;;;;;5109523;27;20128;-90
2024/01/16 12:29:08;;;;;;;10.15;2.13;;;;;;;;;;5094873;27;20046;-87
2024/01/16 12:31:34;;;;;;;8.30;2.35;;;0.90;99.90;;;;;;5112477;27;20039;-90
2024/01/16 12:34:07;;;;;;;10.27;2.53;;;1.10;99.90;;;;;;5116927;27;20108;-86
2024/01/16 12:36:34;;;;;;;7.50;2.72;;;1.30;99.90;;;;;;5101284;27;20049;-85
2024/01/16 12:39:00;;;;;;;13.48;2.80;;;;;;;;;;5093673;27;20522;-86
2024/01/16 12:41:36;;;;;;;11.13;3.20;;;1.00;99.90;;;;;;5099014;27;20117;-87
2024/01/16 12:44:02;;;;;;;11.52;3.05;;;;;;;;;;5090867;27;20480;-89
2024/01/16 12:46:29;;;;;;;12.25;3.28;;;;;;;;;;5100053;27;20121;-87
2024/01/16 12:49:03;;;;;;;8.13;3.78;;;0.90;99.90;;;;;;5125567;27;20066;-90
2024/01/16 12:51:30;;;;;;;13.82;5.93;;;;;;;;;;5125147;27;20062;-86
2024/01/16 12:54:13;;;;;;;19.75;6.05;;;0.80;99.90;;;;;;5111406;27;20042;-89
2024/01/16 12:56:40;;;;;;;17.20;6.15;;;;;;;;;;5080608;27;20040;-87
2024/01/16 12:59:12;;;;;;;19.00;6.72;;;0.80;99.90;;;;;;5118451;27;20581;-89
2024/01/16 13:01:46;;;;;;;18.90;6.68;;;0.80;99.90;;;;;;5112161;27;20515;-89
2024/01/16 13:04:14;;;;;;;18.17;6.88;;;;;;;;;;5088010;27;20050;-90
2024/01/16 13:06:43;;;;;;;24.83;7.50;;;;;;;;;;5109217;27;20122;-89
2024/01/16 13:09:15;;;;;;;21.67;6.47;;;0.40;99.90;;;;;;5101429;27;20038;-89
2024/01/16 13:11:58;;;;;;;24.65;10.07;;;0.60;99.90;;;;;;5129731;27;20086;-89
2024/01/16 13:14:24;;;;;;;18.50;8.10;;;0.50;99.90;;;;;;5112078;27;20038;-86
2024/01/16 13:16:51;;;;;;;23.77;8.00;;;0.50;99.90;;;;;;5109303;27;20040;-89
2024/01/16 13:19:20;;;;;;;27.10;8.85;;;0.50;99.90;;;;;;5100309;27;20043;-88
2024/01/16 13:21:47;;;;;;;19.35;8.52;;;;;;;;;;5095108;27;20499;-86
2024/01/16 13:24:17;;;;;;;22.15;8.27;;;0.50;99.90;;;;;;5117665;27;20586;-88
2024/01/16 13:26:44;;;;;;;24.83;10.02;;;;;;;;;;5114474;27;20046;-87
2024/01/16 13:29:10;;;;;;;22.25;9.27;;;0.50;99.90;;;;;;5107720;27;20042;-88
2024/01/16 13:31:36;;;;;;;19.05;8.18;;;0.40;99.90;;;;;;5112214;27;20071;-90
2024/01/16 13:34:02;;;;;;;20.30;9.60;;;1.50;99.90;;;;;;5108546;28;20071;-90
2024/01/16 13:36:28;;;;;;;22.00;8.20;;;1.60;99.90;;;;;;5115677;27;20045;-88
2024/01/16 13:38:54;;;;;;;22.35;9.05;;;0.30;99.90;;;;;;5125611;27;20129;-89
2024/01/16 13:41:21;;;;;;;19.85;10.02;;;0.80;99.90;;;;;;5107842;27;20070;-87
2024/01/16 13:43:49;;;;;;;20.65;8.68;;;0.10;99.90;;;;;;5097047;27;20039;-88
2024/01/16 13:46:17;;;;;;;25.70;9.13;;;0.00;99.90;;;;;;5100028;27;20046;-88
2024/01/16 13:48:45;;;;;;;23.90;8.55;;;-0.20;99.90;;;;;;5127816;27;20046;-89
2024/01/16 13:51:11;;;;;;;25.50;9.73;;;-0.20;99.90;;;;;;5122187;27;20119;-87